Time;durP1;ratioP1;P1;durP2;ratioP2;P2;SDS_P1;SDS_P2;PMS_P1;PMS_P2;Temp;Humidity;BMP_temperature;BMP_pressure;BME280_temperature;BME280_humidity;BME280_pressure;Samples;Min_cycle;Max_cycle;Signal;HPM_P1;HPM_P2
2021/09/28 00:00:13;;;;;;;3.10;2.30;;;10.50;99.90;;;;;;4981115;28;20152;-65
2021/09/28 00:02:40;;;;;;;5.40;2.08;;;10.50;99.90;;;;;;4981583;28;20439;-65
2021/09/28 00:05:07;;;;;;;3.67;1.80;;;10.50;99.90;;;;;;4981772;28;20046;-66
2021/09/28 00:07:34;;;;;;;3.63;2.65;;;10.50;99.90;;;;;;4980070;28;20050;-68
2021/09/28 00:10:02;;;;;;;2.13;1.92;;;10.50;99.90;;;;;;4982714;28;20070;-66
2021/09/28 00:12:31;;;;;;;6.53;2.00;;;10.50;99.90;;;;;;4983855;28;20093;-65
2021/09/28 00:14:58;;;;;;;5.30;1.77;;;10.40;99.90;;;;;;4985232;28;20047;-66
2021/09/28 00:17:24;;;;;;;4.50;2.40;;;10.40;99.90;;;;;;4983833;28;20462;-65
2021/09/28 00:19:51;;;;;;;4.65;2.13;;;10.40;99.90;;;;;;4984705;28;20054;-65
2021/09/28 00:22:18;;;;;;;1.90;1.80;;;10.40;99.90;;;;;;4982843;28;20094;-65
2021/09/28 00:24:45;;;;;;;2.78;2.13;;;10.40;99.90;;;;;;4982844;28;20117;-65
2021/09/28 00:27:12;;;;;;;2.42;1.80;;;10.40;99.90;;;;;;4979026;28;20137;-64
2021/09/28 00:29:39;;;;;;;3.10;1.80;;;10.30;99.90;;;;;;4984075;28;20088;-65
2021/09/28 00:32:06;;;;;;;3.25;2.22;;;10.30;99.90;;;;;;4981405;28;20104;-70
2021/09/28 00:34:35;;;;;;;5.53;2.30;;;10.30;99.90;;;;;;4982880;28;20135;-66
2021/09/28 00:37:02;;;;;;;4.90;2.58;;;10.30;99.90;;;;;;4977579;28;20249;-65
2021/09/28 00:39:29;;;;;;;2.65;2.10;;;10.30;99.90;;;;;;4981339;28;20133;-66
2021/09/28 00:41:56;;;;;;;4.97;1.83;;;10.30;99.90;;;;;;4980670;28;20484;-67
2021/09/28 00:44:34;;;;;;;1.95;1.65;;;10.20;99.90;;;;;;4983578;28;20133;-67
2021/09/28 00:47:01;;;;;;;3.10;1.83;;;10.20;99.90;;;;;;4979349;28;20121;-66
2021/09/28 00:49:28;;;;;;;6.55;2.10;;;10.20;99.90;;;;;;4980675;28;20129;-65
2021/09/28 00:51:55;;;;;;;3.38;1.98;;;10.20;99.90;;;;;;4981875;28;20042;-68
2021/09/28 00:54:22;;;;;;;3.83;2.75;;;10.20;99.90;;;;;;4982688;28;20574;-70
2021/09/28 00:56:50;;;;;;;3.50;2.85;;;10.20;99.90;;;;;;4983543;28;20069;-65
2021/09/28 00:59:18;;;;;;;4.35;2.53;;;10.10;99.90;;;;;;4979661;28;20047;-69
2021/09/28 01:01:47;;;;;;;5.03;2.20;;;10.20;99.90;;;;;;4979781;28;20046;-65
2021/09/28 01:04:16;;;;;;;3.63;3.05;;;10.10;99.90;;;;;;4981714;28;20050;-65
2021/09/28 01:06:43;;;;;;;3.20;2.20;;;10.10;99.90;;;;;;4905770;28;20167;-67
2021/09/28 01:09:20;;;;;;;3.82;1.85;;;10.20;99.90;;;;;;606463;28;10023207;-65
2021/09/28 01:11:48;;;;;;;3.00;2.47;;;10.20;99.90;;;;;;4981192;28;20275;-65
2021/09/28 01:14:15;;;;;;;5.47;2.10;;;10.20;99.90;;;;;;4980717;28;20663;-65
2021/09/28 01:16:42;;;;;;;4.15;2.33;;;10.20;99.90;;;;;;4979056;28;20077;-65
2021/09/28 01:19:09;;;;;;;2.70;2.50;;;10.10;99.90;;;;;;4961891;28;20055;-67
2021/09/28 01:21:36;;;;;;;4.50;2.80;;;10.20;99.90;;;;;;4977564;28;20142;-66
2021/09/28 01:24:04;;;;;;;4.55;2.15;;;10.20;99.90;;;;;;4978480;28;20459;-67
2021/09/28 01:26:31;;;;;;;4.00;2.45;;;10.20;99.90;;;;;;4983083;28;20050;-66
2021/09/28 01:29:00;;;;;;;3.42;2.35;;;10.20;99.90;;;;;;4978873;28;20822;-65
2021/09/28 01:31:27;;;;;;;3.17;1.98;;;10.10;99.90;;;;;;4979671;28;20086;-67
2021/09/28 01:33:55;;;;;;;4.82;3.05;;;10.10;99.90;;;;;;4976269;28;20051;-67
2021/09/28 01:36:22;;;;;;;2.28;2.08;;;10.10;99.90;;;;;;4973550;28;20094;-66
2021/09/28 01:38:49;;;;;;;3.38;3.08;;;10.10;99.90;;;;;;4983409;28;20078;-66
2021/09/28 01:41:16;;;;;;;2.70;1.88;;;10.10;99.90;;;;;;4978802;28;20042;-68
2021/09/28 01:43:43;;;;;;;4.50;2.47;;;10.10;99.90;;;;;;4983164;28;20130;-68
2021/09/28 01:46:10;;;;;;;4.07;2.47;;;10.10;99.90;;;;;;4980196;28;20063;-65
2021/09/28 01:48:41;;;;;;;4.55;2.70;;;10.10;99.90;;;;;;4979968;28;20054;-66
2021/09/28 01:51:07;;;;;;;3.97;2.15;;;10.10;99.90;;;;;;4975862;28;20267;-68
2021/09/28 01:53:34;;;;;;;4.03;2.97;;;10.10;99.90;;;;;;4983865;28;20081;-65
2021/09/28 01:56:01;;;;;;;3.67;3.03;;;10.10;99.90;;;;;;4980625;28;20058;-66
2021/09/28 01:58:29;;;;;;;6.20;4.25;;;10.10;99.90;;;;;;4979697;28;20062;-70
2021/09/28 02:00:56;;;;;;;3.75;2.42;;;10.10;99.90;;;;;;4978099;28;20165;-69
2021/09/28 02:03:23;;;;;;;3.80;2.38;;;10.10;99.90;;;;;;4978402;28;20149;-69
2021/09/28 02:05:51;;;;;;;3.53;2.83;;;10.10;99.90;;;;;;4979120;28;20688;-68
2021/09/28 02:08:18;;;;;;;3.05;2.60;;;10.20;99.90;;;;;;4981400;28;20204;-70
2021/09/28 02:10:45;;;;;;;2.55;2.38;;;10.10;99.90;;;;;;4979783;28;20042;-68
2021/09/28 02:13:13;;;;;;;4.78;2.50;;;10.10;99.90;;;;;;4980731;28;20069;-67
2021/09/28 02:15:40;;;;;;;5.00;3.22;;;10.10;99.90;;;;;;4982466;28;20081;-67
2021/09/28 02:18:07;;;;;;;3.83;2.78;;;10.10;99.90;;;;;;4984443;28;20439;-67
2021/09/28 02:20:34;;;;;;;3.83;3.28;;;10.10;99.90;;;;;;4984721;28;20054;-65
2021/09/28 02:23:01;;;;;;;4.40;2.75;;;10.10;99.90;;;;;;4983531;28;20133;-67
2021/09/28 02:25:28;;;;;;;3.60;2.88;;;10.10;99.90;;;;;;4984979;28;20433;-67
2021/09/28 02:27:55;;;;;;;8.80;3.95;;;10.20;99.90;;;;;;4985505;28;20054;-67
2021/09/28 02:30:22;;;;;;;4.07;2.80;;;10.20;99.90;;;;;;4986069;28;20146;-67
2021/09/28 02:32:49;;;;;;;5.80;3.55;;;10.20;99.90;;;;;;4984820;28;20491;-65
2021/09/28 02:35:16;;;;;;;6.55;2.58;;;10.20;99.90;;;;;;4984278;28;20050;-67
2021/09/28 02:37:43;;;;;;;4.80;3.13;;;10.20;99.90;;;;;;4985567;28;20054;-67
2021/09/28 02:40:11;;;;;;;6.32;3.63;;;10.20;99.90;;;;;;4985680;28;20058;-66
2021/09/28 02:42:38;;;;;;;6.68;3.53;;;10.20;99.90;;;;;;4982159;28;20153;-68
2021/09/28 02:45:06;;;;;;;3.28;2.58;;;10.10;99.90;;;;;;4967332;28;20054;-65
2021/09/28 02:47:33;;;;;;;2.92;2.72;;;10.10;99.90;;;;;;4983434;28;20444;-69
2021/09/28 02:50:00;;;;;;;4.00;2.95;;;10.10;99.90;;;;;;4986310;28;20080;-65
2021/09/28 02:52:27;;;;;;;3.20;2.40;;;10.20;99.90;;;;;;4967812;28;20081;-65
2021/09/28 02:54:54;;;;;;;5.95;3.35;;;10.10;99.90;;;;;;4977735;28;20093;-70
2021/09/28 02:57:21;;;;;;;4.03;2.58;;;10.10;99.90;;;;;;4984281;28;20109;-66
2021/09/28 02:59:48;;;;;;;3.47;2.53;;;10.00;99.90;;;;;;4990091;28;20149;-65
2021/09/28 03:02:15;;;;;;;5.47;3.30;;;10.00;99.90;;;;;;4984235;28;20050;-66
2021/09/28 03:04:42;;;;;;;2.83;2.63;;;10.00;99.90;;;;;;4982459;28;20038;-66
2021/09/28 03:07:09;;;;;;;4.05;3.00;;;10.00;99.90;;;;;;4983692;28;20074;-66
2021/09/28 03:09:35;;;;;;;2.40;2.20;;;9.90;99.90;;;;;;4984756;28;20065;-65
2021/09/28 03:12:03;;;;;;;4.72;2.67;;;9.90;99.90;;;;;;4985183;28;20576;-66
2021/09/28 03:14:30;;;;;;;6.05;2.45;;;9.90;99.90;;;;;;4966693;28;20051;-66
2021/09/28 03:16:57;;;;;;;5.20;2.25;;;9.90;99.90;;;;;;4976993;28;20058;-68
2021/09/28 03:19:24;;;;;;;3.17;2.53;;;9.90;99.90;;;;;;4966513;28;20105;-65
2021/09/28 03:21:52;;;;;;;2.97;2.70;;;9.90;99.90;;;;;;4980677;28;20546;-67
2021/09/28 03:24:19;;;;;;;5.00;3.05;;;9.90;99.90;;;;;;4982763;28;20461;-65
2021/09/28 03:26:46;;;;;;;3.20;2.70;;;9.80;99.90;;;;;;4978911;28;20062;-66
2021/09/28 03:29:13;;;;;;;4.68;2.30;;;9.80;99.90;;;;;;4981801;28;20046;-67
2021/09/28 03:31:41;;;;;;;4.88;3.17;;;9.80;99.90;;;;;;4982751;28;20123;-68
2021/09/28 03:34:08;;;;;;;2.85;2.58;;;9.80;99.90;;;;;;4981988;28;20050;-70
2021/09/28 03:36:35;;;;;;;3.75;2.55;;;9.80;99.90;;;;;;4982751;28;20100;-64
2021/09/28 03:39:02;;;;;;;4.95;3.05;;;9.80;99.90;;;;;;4982692;28;20050;-69
2021/09/28 03:41:29;;;;;;;3.47;2.55;;;9.80;99.90;;;;;;4982901;28;20050;-66
2021/09/28 03:43:56;;;;;;;4.55;2.58;;;9.80;99.90;;;;;;4984659;28;20125;-68
2021/09/28 03:46:23;;;;;;;3.53;2.92;;;9.80;99.90;;;;;;4979552;28;20515;-66
2021/09/28 03:48:50;;;;;;;5.70;2.55;;;9.80;99.90;;;;;;4984752;28;20129;-67
2021/09/28 03:51:17;;;;;;;6.68;3.17;;;9.80;99.90;;;;;;4981804;28;20229;-65
2021/09/28 03:53:44;;;;;;;3.47;2.47;;;9.80;99.90;;;;;;4983465;28;20042;-69
2021/09/28 03:56:11;;;;;;;3.70;2.58;;;9.80;99.90;;;;;;4983874;28;20629;-66
2021/09/28 03:58:38;;;;;;;5.55;3.00;;;9.80;99.90;;;;;;4984620;28;20093;-65
2021/09/28 04:01:04;;;;;;;3.83;2.65;;;9.90;99.90;;;;;;4978601;28;20489;-70
2021/09/28 04:03:32;;;;;;;4.15;2.45;;;9.90;99.90;;;;;;4984106;28;20050;-66
2021/09/28 04:05:58;;;;;;;3.55;2.38;;;9.90;99.90;;;;;;4983469;28;20074;-65
2021/09/28 04:08:25;;;;;;;3.80;2.90;;;9.90;99.90;;;;;;4985013;28;20073;-65
2021/09/28 04:10:52;;;;;;;6.70;2.85;;;9.90;99.90;;;;;;4981654;28;20088;-70
2021/09/28 04:13:19;;;;;;;5.57;2.83;;;9.90;99.90;;;;;;4978834;28;20118;-66
2021/09/28 04:15:46;;;;;;;2.60;2.38;;;9.90;99.90;;;;;;4982001;28;20078;-67
2021/09/28 04:18:13;;;;;;;2.85;2.60;;;9.90;99.90;;;;;;4983944;28;20318;-67
2021/09/28 04:20:43;;;;;;;10.32;3.20;;;9.90;99.90;;;;;;4980334;28;20070;-67
2021/09/28 04:23:13;;;;;;;2.63;2.43;;;9.90;99.90;;;;;;4978045;28;20137;-68
2021/09/28 04:25:43;;;;;;;3.88;3.47;;;9.90;99.90;;;;;;4982167;28;20058;-67
2021/09/28 04:28:10;;;;;;;6.90;3.17;;;9.90;99.90;;;;;;4978212;28;20343;-68
2021/09/28 04:30:37;;;;;;;3.80;3.50;;;10.00;99.90;;;;;;4979562;28;20081;-69
2021/09/28 04:33:05;;;;;;;3.00;2.35;;;10.00;99.90;;;;;;4973352;28;20050;-65
2021/09/28 04:35:32;;;;;;;5.82;3.33;;;10.00;99.90;;;;;;4982233;28;20100;-66
2021/09/28 04:37:58;;;;;;;7.18;2.85;;;10.10;99.90;;;;;;4980247;28;20397;-66
2021/09/28 04:40:26;;;;;;;5.43;2.65;;;10.20;99.90;;;;;;4980473;28;20075;-66
2021/09/28 04:42:52;;;;;;;4.65;3.35;;;10.20;99.90;;;;;;4964286;28;20157;-65
2021/09/28 04:45:19;;;;;;;7.85;3.05;;;10.20;99.90;;;;;;4980270;28;20134;-65
2021/09/28 04:47:46;;;;;;;3.83;2.78;;;10.30;99.90;;;;;;4977841;28;20065;-68
2021/09/28 04:50:13;;;;;;;3.72;2.97;;;10.30;99.90;;;;;;4981533;28;20137;-68
2021/09/28 04:52:40;;;;;;;4.55;2.80;;;10.40;99.90;;;;;;4982523;28;20074;-67
2021/09/28 04:55:07;;;;;;;9.45;3.08;;;10.50;99.90;;;;;;4972918;28;20137;-65
2021/09/28 04:57:35;;;;;;;4.68;2.50;;;10.50;99.90;;;;;;4978652;28;20129;-67
2021/09/28 05:00:03;;;;;;;3.38;2.55;;;10.50;99.90;;;;;;4983117;28;20051;-68
2021/09/28 05:02:30;;;;;;;4.97;4.32;;;10.60;99.90;;;;;;4977042;28;20078;-67
2021/09/28 05:04:57;;;;;;;3.55;2.80;;;10.60;99.90;;;;;;4976478;28;20076;-70
2021/09/28 05:07:25;;;;;;;7.20;3.10;;;10.60;99.90;;;;;;4975794;28;20171;-66
2021/09/28 05:09:52;;;;;;;3.30;2.85;;;10.60;99.90;;;;;;4983365;28;20061;-69
2021/09/28 05:12:20;;;;;;;6.47;2.78;;;10.60;99.90;;;;;;4980306;28;21724;-65
2021/09/28 05:14:47;;;;;;;4.68;3.92;;;10.70;99.90;;;;;;4979592;28;20046;-65
2021/09/28 05:17:14;;;;;;;5.47;2.65;;;10.80;99.90;;;;;;4982571;28;20555;-70
2021/09/28 05:19:41;;;;;;;2.90;2.67;;;10.80;99.90;;;;;;4981870;28;20138;-64
2021/09/28 05:22:08;;;;;;;6.47;2.88;;;10.80;99.90;;;;;;4983398;28;20587;-66
2021/09/28 05:24:35;;;;;;;5.32;3.25;;;10.90;99.90;;;;;;4979894;28;20058;-64
2021/09/28 05:27:02;;;;;;;5.10;3.28;;;10.90;99.90;;;;;;4982828;28;20085;-69
2021/09/28 05:29:29;;;;;;;5.80;3.40;;;10.90;99.90;;;;;;4980758;28;20557;-64
2021/09/28 05:31:56;;;;;;;4.25;2.92;;;10.90;99.90;;;;;;4982903;28;20133;-64
2021/09/28 05:34:23;;;;;;;4.28;2.67;;;11.00;99.90;;;;;;4978098;28;20453;-64
2021/09/28 05:36:51;;;;;;;3.72;2.70;;;11.00;99.90;;;;;;4980866;28;20449;-64
2021/09/28 05:39:19;;;;;;;4.15;3.28;;;11.10;99.90;;;;;;4979738;28;20514;-64
2021/09/28 05:41:46;;;;;;;3.95;3.17;;;11.10;99.90;;;;;;4979915;28;20465;-64
2021/09/28 05:44:13;;;;;;;5.90;3.72;;;11.10;99.90;;;;;;4979770;28;20088;-68
2021/09/28 05:46:40;;;;;;;3.35;3.05;;;11.20;99.90;;;;;;4978237;28;20133;-68
2021/09/28 05:49:07;;;;;;;3.28;2.97;;;11.30;99.90;;;;;;4983396;28;20074;-65
2021/09/28 05:51:35;;;;;;;4.93;3.13;;;11.30;99.90;;;;;;4985732;28;20109;-70
2021/09/28 05:54:05;;;;;;;6.40;3.70;;;11.30;99.90;;;;;;4986439;28;20062;-64
2021/09/28 05:56:32;;;;;;;5.87;3.07;;;11.40;99.90;;;;;;4984624;28;20795;-65
2021/09/28 05:58:59;;;;;;;5.32;4.47;;;11.40;99.90;;;;;;4975583;28;20425;-67
2021/09/28 06:01:25;;;;;;;3.75;3.45;;;11.50;99.90;;;;;;4981748;28;20074;-66
2021/09/28 06:03:53;;;;;;;3.30;3.00;;;11.50;99.90;;;;;;4983264;28;20154;-64
2021/09/28 06:06:26;;;;;;;5.35;3.90;;;11.60;99.90;;;;;;4983365;28;20062;-65
2021/09/28 06:08:54;;;;;;;5.55;3.83;;;11.60;99.90;;;;;;4976839;28;20050;-67
2021/09/28 06:11:22;;;;;;;5.45;3.30;;;11.60;99.90;;;;;;4981680;28;20754;-64
2021/09/28 06:13:50;;;;;;;7.55;3.67;;;11.70;99.90;;;;;;4980664;28;20508;-66
2021/09/28 06:16:17;;;;;;;4.32;3.92;;;11.70;99.90;;;;;;4982184;28;20538;-68
2021/09/28 06:18:45;;;;;;;4.88;2.97;;;11.70;99.90;;;;;;4977552;28;20062;-66
2021/09/28 06:21:12;;;;;;;3.45;3.13;;;11.70;99.90;;;;;;4975415;28;20165;-64
2021/09/28 06:23:40;;;;;;;4.80;3.47;;;11.70;99.90;;;;;;4982714;28;20113;-65
2021/09/28 06:26:07;;;;;;;5.25;4.18;;;11.80;99.90;;;;;;4985076;28;20708;-66
2021/09/28 06:28:36;;;;;;;3.95;2.75;;;11.90;99.90;;;;;;4980864;28;20506;-66
2021/09/28 06:31:03;;;;;;;5.72;3.78;;;11.90;99.90;;;;;;4980895;28;20070;-65
2021/09/28 06:33:30;;;;;;;2.58;2.38;;;11.90;99.90;;;;;;4981179;28;20050;-65
2021/09/28 06:35:57;;;;;;;4.30;3.15;;;12.10;99.90;;;;;;4986308;28;20120;-65
2021/09/28 06:38:24;;;;;;;4.97;3.38;;;12.10;99.90;;;;;;4978766;28;20190;-64
2021/09/28 06:40:51;;;;;;;3.85;3.38;;;12.10;99.90;;;;;;4973226;28;20535;-68
2021/09/28 06:43:19;;;;;;;3.47;2.80;;;12.10;99.90;;;;;;4976487;28;20182;-65
2021/09/28 06:45:46;;;;;;;4.80;2.92;;;12.20;99.90;;;;;;4981437;28;20149;-65
2021/09/28 06:48:13;;;;;;;4.43;3.03;;;12.20;99.90;;;;;;4975486;28;20096;-68
2021/09/28 06:50:40;;;;;;;4.47;4.05;;;12.20;99.90;;;;;;4978949;28;20050;-63
2021/09/28 06:53:07;;;;;;;5.25;3.15;;;12.30;99.90;;;;;;4976002;28;20409;-65
2021/09/28 06:55:35;;;;;;;3.30;2.97;;;12.30;99.90;;;;;;4983185;28;20085;-66
2021/09/28 06:58:05;;;;;;;4.13;2.90;;;12.40;99.90;;;;;;4975681;28;20145;-64
2021/09/28 07:00:35;;;;;;;6.30;3.03;;;12.40;99.90;;;;;;4976650;28;20064;-64
2021/09/28 07:03:04;;;;;;;3.58;3.28;;;12.50;99.90;;;;;;4977346;28;20417;-65
2021/09/28 07:05:32;;;;;;;3.47;2.70;;;12.50;99.90;;;;;;4985890;28;20449;-64
2021/09/28 07:07:59;;;;;;;4.80;3.20;;;12.50;99.90;;;;;;4983208;28;20108;-64
2021/09/28 07:10:26;;;;;;;3.33;3.00;;;12.60;99.90;;;;;;4982225;28;20061;-65
2021/09/28 07:12:54;;;;;;;6.20;4.03;;;12.60;99.90;;;;;;4981935;28;20054;-64
2021/09/28 07:15:21;;;;;;;5.75;2.97;;;12.70;99.90;;;;;;4981944;28;20416;-66
2021/09/28 07:17:48;;;;;;;3.08;2.42;;;12.80;99.90;;;;;;4977316;28;20054;-64
2021/09/28 07:20:15;;;;;;;2.95;2.67;;;12.80;99.90;;;;;;4979403;28;20086;-64
2021/09/28 07:22:43;;;;;;;3.92;3.10;;;12.80;99.90;;;;;;4978317;28;20051;-65
2021/09/28 07:25:10;;;;;;;3.60;3.30;;;12.80;99.90;;;;;;4979350;28;20105;-64
2021/09/28 07:27:55;;;;;;;3.38;3.00;;;12.80;99.90;;;;;;4975402;28;20048;-68
2021/09/28 07:30:22;;;;;;;4.10;3.13;;;12.80;99.90;;;;;;4984662;28;20547;-65
2021/09/28 07:32:49;;;;;;;3.05;2.58;;;12.80;99.90;;;;;;4982188;28;20608;-65
2021/09/28 07:35:16;;;;;;;3.25;2.55;;;12.90;99.90;;;;;;4984136;28;20121;-65
2021/09/28 07:37:43;;;;;;;3.58;3.28;;;12.90;99.90;;;;;;4979195;28;20114;-68
2021/09/28 07:40:10;;;;;;;6.03;3.53;;;12.80;99.90;;;;;;4979822;28;20066;-64
2021/09/28 07:42:37;;;;;;;9.45;2.72;;;12.90;99.90;;;;;;4978963;28;20647;-66
2021/09/28 07:45:05;;;;;;;5.18;2.65;;;12.90;99.90;;;;;;4972169;28;20054;-66
2021/09/28 07:47:33;;;;;;;2.88;2.63;;;12.90;99.90;;;;;;4978567;28;20055;-64
2021/09/28 07:50:00;;;;;;;2.97;2.75;;;13.00;99.90;;;;;;4976888;28;20341;-64
2021/09/28 07:52:27;;;;;;;3.70;2.58;;;13.00;99.90;;;;;;4983777;28;20125;-66
2021/09/28 07:54:54;;;;;;;4.18;3.55;;;13.10;99.90;;;;;;4980690;28;20085;-67
2021/09/28 07:57:21;;;;;;;4.22;3.42;;;13.00;99.90;;;;;;4971757;28;20051;-64
2021/09/28 07:59:51;;;;;;;2.40;2.15;;;13.10;99.90;;;;;;4984893;28;20106;-63
2021/09/28 08:02:20;;;;;;;3.42;3.13;;;13.10;99.90;;;;;;4984084;28;20046;-65
2021/09/28 08:04:47;;;;;;;7.88;3.72;;;13.10;99.90;;;;;;4976145;28;20053;-64
2021/09/28 08:07:17;;;;;;;4.13;3.38;;;13.20;99.90;;;;;;4977147;28;20046;-66
2021/09/28 08:09:44;;;;;;;3.47;3.10;;;13.20;99.90;;;;;;4982263;28;20050;-64
2021/09/28 08:12:11;;;;;;;3.22;3.03;;;13.30;99.90;;;;;;4961424;28;20125;-63
2021/09/28 08:14:38;;;;;;;3.67;3.38;;;13.30;99.90;;;;;;4983433;28;20126;-65
2021/09/28 08:17:05;;;;;;;3.58;2.75;;;13.30;99.90;;;;;;4979807;28;20064;-65
2021/09/28 08:19:33;;;;;;;4.13;3.70;;;13.30;99.90;;;;;;4976207;28;21009;-66
2021/09/28 08:22:00;;;;;;;4.78;3.30;;;13.40;99.90;;;;;;4975232;28;20487;-66
2021/09/28 08:24:31;;;;;;;3.58;3.28;;;13.40;99.90;;;;;;4980589;28;20054;-67
2021/09/28 08:29:43;;;;;;;4.57;2.97;;;13.40;99.90;;;;;;4977632;28;20061;-68
2021/09/28 08:32:10;;;;;;;7.40;3.70;;;13.40;99.90;;;;;;4978912;28;20125;-65
2021/09/28 08:34:37;;;;;;;3.00;2.80;;;13.50;99.90;;;;;;4972565;28;20100;-66
2021/09/28 08:37:04;;;;;;;3.22;2.92;;;13.50;99.90;;;;;;4978057;28;20109;-64
2021/09/28 08:39:31;;;;;;;6.82;2.85;;;13.60;99.90;;;;;;4981636;28;20074;-64
2021/09/28 08:41:58;;;;;;;3.17;2.88;;;13.70;99.90;;;;;;4982221;28;20043;-68
2021/09/28 08:44:25;;;;;;;6.68;3.38;;;13.70;99.90;;;;;;4977504;28;20069;-65
2021/09/28 08:46:52;;;;;;;3.13;2.88;;;13.70;99.90;;;;;;4981267;28;20673;-66
2021/09/28 08:49:20;;;;;;;4.82;2.80;;;13.80;99.90;;;;;;4975898;28;20046;-66
2021/09/28 08:51:49;;;;;;;3.13;2.78;;;13.80;99.90;;;;;;4983360;28;20078;-64
2021/09/28 08:54:16;;;;;;;4.88;2.85;;;13.90;99.90;;;;;;4976928;28;20058;-65
2021/09/28 08:56:44;;;;;;;3.17;2.72;;;13.90;99.90;;;;;;4979602;28;20046;-65
2021/09/28 08:59:14;;;;;;;4.00;3.65;;;13.90;99.90;;;;;;4979307;28;20138;-65
2021/09/28 09:01:55;;;;;;;7.10;4.80;;;14.00;99.90;;;;;;4978339;28;20450;-64
2021/09/28 09:04:25;;;;;;;6.00;2.90;;;14.10;99.90;;;;;;4970910;28;20066;-65
2021/09/28 09:06:54;;;;;;;4.93;3.72;;;14.20;99.90;;;;;;4976834;28;20460;-66
2021/09/28 09:09:50;;;;;;;3.40;3.10;;;14.20;99.90;;;;;;4974143;28;20062;-66
2021/09/28 09:12:31;;;;;;;5.00;3.22;;;14.30;99.90;;;;;;4976158;28;20138;-66
2021/09/28 09:15:43;;;;;;;6.72;4.45;;;14.30;99.90;;;;;;4957209;28;20093;-67
2021/09/28 09:18:13;;;;;;;3.78;2.65;;;14.30;99.90;;;;;;4979724;28;20132;-65
2021/09/28 09:20:42;;;;;;;3.28;2.97;;;14.40;99.90;;;;;;4980667;28;20746;-65
2021/09/28 09:23:18;;;;;;;4.90;3.33;;;14.40;99.90;;;;;;4980269;28;20141;-66
2021/09/28 09:25:46;;;;;;;3.15;2.67;;;14.40;99.90;;;;;;4976705;28;20663;-64
2021/09/28 09:28:31;;;;;;;3.85;3.20;;;14.50;99.90;;;;;;4981017;28;20799;-65
2021/09/28 09:31:21;;;;;;;4.40;2.92;;;14.50;99.90;;;;;;4977650;28;20560;-68
2021/09/28 09:33:55;;;;;;;3.78;3.47;;;14.60;99.90;;;;;;4981708;28;20058;-66
2021/09/28 09:36:23;;;;;;;4.20;2.90;;;14.70;99.90;;;;;;4974711;28;20046;-65
2021/09/28 09:38:54;;;;;;;5.30;3.92;;;14.90;99.90;;;;;;4976188;28;20042;-65
2021/09/28 09:41:27;;;;;;;3.90;2.78;;;14.80;99.90;;;;;;4973474;28;20055;-65
2021/09/28 09:44:27;;;;;;;3.83;2.95;;;14.70;99.90;;;;;;4979498;28;20134;-66
2021/09/28 09:46:54;;;;;;;3.70;3.40;;;14.80;99.90;;;;;;4976682;28;20050;-64
2021/09/28 09:49:36;;;;;;;2.47;2.28;;;14.80;99.90;;;;;;4970797;28;20047;-63
2021/09/28 09:52:10;;;;;;;2.53;2.40;;;14.80;99.90;;;;;;4975370;28;20138;-66
2021/09/28 09:54:39;;;;;;;7.93;3.22;;;14.90;99.90;;;;;;4981156;28;20084;-64
2021/09/28 09:57:08;;;;;;;9.30;2.92;;;14.90;99.90;;;;;;4974697;28;20133;-65
2021/09/28 09:59:37;;;;;;;3.83;3.13;;;14.90;99.90;;;;;;4979097;28;20053;-66
2021/09/28 10:02:06;;;;;;;4.13;3.05;;;14.90;99.90;;;;;;4976266;28;20510;-65
2021/09/28 10:04:34;;;;;;;3.57;2.80;;;14.90;99.90;;;;;;4973236;28;20066;-66
2021/09/28 10:07:02;;;;;;;7.75;2.90;;;14.90;99.90;;;;;;4976263;28;20068;-65
2021/09/28 10:09:30;;;;;;;4.25;3.30;;;14.90;99.90;;;;;;4973042;28;20085;-64
2021/09/28 10:12:00;;;;;;;4.95;3.22;;;15.00;99.90;;;;;;4980242;28;20522;-68
2021/09/28 10:14:39;;;;;;;3.58;3.00;;;15.00;99.90;;;;;;4968512;28;20130;-65
2021/09/28 10:17:21;;;;;;;5.20;3.00;;;15.00;99.90;;;;;;4976015;28;20058;-64
2021/09/28 10:19:53;;;;;;;2.75;2.47;;;15.00;99.90;;;;;;4973611;28;20496;-67
2021/09/28 10:22:49;;;;;;;2.60;2.40;;;15.10;99.90;;;;;;4972327;28;20069;-65
2021/09/28 10:25:18;;;;;;;2.67;2.42;;;15.10;99.90;;;;;;4975265;28;20543;-65
2021/09/28 10:27:49;;;;;;;3.08;2.38;;;15.10;99.90;;;;;;4977594;28;20088;-65
2021/09/28 10:30:32;;;;;;;3.40;2.50;;;15.10;99.90;;;;;;4977031;28;20130;-66
2021/09/28 10:32:59;;;;;;;2.72;2.53;;;15.20;99.90;;;;;;4976161;28;20046;-66
2021/09/28 10:35:27;;;;;;;6.97;3.08;;;15.20;99.90;;;;;;4961059;28;20058;-64
2021/09/28 10:37:56;;;;;;;3.10;2.78;;;15.10;99.90;;;;;;4983068;28;20062;-64
2021/09/28 10:40:24;;;;;;;5.32;2.35;;;15.10;99.90;;;;;;4979683;28;20062;-65
2021/09/28 10:43:05;;;;;;;4.95;2.80;;;15.10;99.90;;;;;;4979101;28;20138;-64
2021/09/28 10:45:32;;;;;;;3.72;2.30;;;15.10;99.90;;;;;;4974304;28;20744;-66
2021/09/28 10:48:18;;;;;;;4.13;2.22;;;15.10;99.90;;;;;;4976084;28;20391;-67
2021/09/28 10:50:46;;;;;;;3.25;2.50;;;14.90;99.90;;;;;;4980438;28;20068;-63
2021/09/28 10:53:19;;;;;;;2.38;2.17;;;14.90;99.90;;;;;;4979641;28;20078;-67
2021/09/28 10:56:02;;;;;;;2.65;2.45;;;14.90;99.90;;;;;;4982262;28;20620;-65
2021/09/28 10:58:48;;;;;;;5.95;3.10;;;14.80;99.90;;;;;;4982368;28;20731;-66
2021/09/28 11:01:15;;;;;;;2.78;1.95;;;14.80;99.90;;;;;;4981176;28;20038;-65
2021/09/28 11:03:57;;;;;;;4.13;2.10;;;14.80;99.90;;;;;;4981635;28;20047;-64
2021/09/28 11:06:53;;;;;;;3.58;2.65;;;14.90;99.90;;;;;;4984451;28;20062;-64
2021/09/28 11:09:23;;;;;;;3.88;2.00;;;15.00;99.90;;;;;;4980173;28;20070;-64
2021/09/28 11:11:53;;;;;;;5.38;3.40;;;15.20;99.90;;;;;;4980519;28;20096;-65
2021/09/28 11:14:23;;;;;;;4.95;2.38;;;15.50;99.90;;;;;;4978044;28;20097;-66
2021/09/28 11:16:55;;;;;;;2.67;1.80;;;15.50;99.90;;;;;;4978714;28;20158;-65
2021/09/28 11:19:31;;;;;;;3.50;3.20;;;15.60;99.90;;;;;;4982442;28;20051;-66
2021/09/28 11:21:58;;;;;;;4.70;2.25;;;15.60;99.90;;;;;;4983743;28;20105;-64
2021/09/28 11:24:27;;;;;;;2.60;1.85;;;15.50;99.90;;;;;;4984871;28;20559;-65
2021/09/28 11:27:09;;;;;;;5.25;2.03;;;15.40;99.90;;;;;;4979066;28;20110;-64
2021/09/28 11:29:37;;;;;;;2.10;1.30;;;15.40;99.90;;;;;;4975862;28;20046;-64
2021/09/28 11:32:05;;;;;;;2.95;2.75;;;15.40;99.90;;;;;;4982512;28;20168;-66
2021/09/28 11:34:35;;;;;;;2.30;1.85;;;15.40;99.90;;;;;;4981161;28;20055;-64
2021/09/28 11:37:17;;;;;;;2.65;2.45;;;15.50;99.90;;;;;;4980263;28;20137;-67
2021/09/28 11:39:47;;;;;;;2.85;1.88;;;15.50;99.90;;;;;;4984217;28;20133;-65
2021/09/28 11:42:15;;;;;;;1.98;1.50;;;15.50;99.90;;;;;;4976535;28;20054;-65
2021/09/28 11:44:51;;;;;;;2.42;1.70;;;15.50;99.90;;;;;;4977788;28;20151;-68
2021/09/28 11:47:22;;;;;;;1.90;1.55;;;15.50;99.90;;;;;;4973932;28;20046;-65
2021/09/28 11:49:58;;;;;;;1.65;1.55;;;15.40;99.90;;;;;;4984849;28;20391;-66
2021/09/28 11:52:25;;;;;;;5.65;2.50;;;15.40;99.90;;;;;;4973644;28;20122;-65
2021/09/28 11:54:53;;;;;;;2.05;1.95;;;15.40;99.90;;;;;;4985258;28;20116;-65
2021/09/28 11:57:21;;;;;;;2.10;1.65;;;15.50;99.90;;;;;;4978043;28;20108;-64
2021/09/28 11:59:49;;;;;;;2.35;2.20;;;15.60;99.90;;;;;;4991892;28;20538;-65
2021/09/28 12:02:19;;;;;;;2.28;1.90;;;15.70;99.90;;;;;;4981711;28;20128;-66
2021/09/28 12:10:13;;;;;;;2.38;2.17;;;15.60;99.90;;;;;;4980979;28;20050;-63
2021/09/28 12:12:41;;;;;;;2.13;2.03;;;15.40;99.90;;;;;;4974155;28;20047;-65
2021/09/28 12:15:10;;;;;;;3.40;2.35;;;15.40;99.90;;;;;;4980103;28;20062;-64
2021/09/28 12:17:41;;;;;;;7.03;2.63;;;15.40;99.90;;;;;;4974124;28;20054;-65
2021/09/28 12:20:16;;;;;;;3.53;2.70;;;15.30;99.90;;;;;;4983721;28;20046;-65
2021/09/28 12:22:45;;;;;;;4.20;2.65;;;15.10;99.90;;;;;;4979677;28;20065;-65
2021/09/28 12:25:16;;;;;;;3.67;2.33;;;14.90;99.90;;;;;;4982697;28;20153;-66
2021/09/28 12:27:59;;;;;;;2.45;2.28;;;14.80;99.90;;;;;;4963235;28;20161;-63
2021/09/28 12:30:33;;;;;;;2.47;2.28;;;14.80;99.90;;;;;;4977519;28;20148;-64
2021/09/28 12:33:00;;;;;;;2.45;2.25;;;14.80;99.90;;;;;;4960015;28;20154;-64
2021/09/28 12:35:36;;;;;;;3.70;2.17;;;14.80;99.90;;;;;;4980087;28;20074;-65
2021/09/28 12:38:10;;;;;;;2.65;2.45;;;14.80;99.90;;;;;;4977472;28;20668;-64
2021/09/28 12:40:43;;;;;;;3.17;2.75;;;14.80;99.90;;;;;;4976082;28;20062;-65
2021/09/28 12:43:14;;;;;;;2.92;2.72;;;14.80;99.90;;;;;;4969092;28;20043;-65
2021/09/28 12:45:44;;;;;;;;;;;14.80;99.90;;;;;;4983572;28;20072;-65
2021/09/28 12:48:12;;;;;;;3.53;2.53;;;14.80;99.90;;;;;;4972266;28;19926;-66
2021/09/28 12:50:40;;;;;;;3.95;2.97;;;14.90;99.90;;;;;;4974784;28;20093;-65
2021/09/28 12:53:15;;;;;;;2.42;1.92;;;14.90;99.90;;;;;;4978984;28;20073;-65
2021/09/28 12:55:46;;;;;;;4.00;3.65;;;14.90;99.90;;;;;;4972631;28;20055;-64
2021/09/28 12:58:15;;;;;;;3.38;2.38;;;14.90;99.90;;;;;;4979640;28;20038;-65
2021/09/28 13:00:43;;;;;;;2.97;2.72;;;14.90;99.90;;;;;;4978047;28;20093;-64
2021/09/28 13:03:24;;;;;;;2.35;1.95;;;14.90;99.90;;;;;;4980310;28;20129;-64
2021/09/28 13:05:55;;;;;;;2.90;2.70;;;15.00;99.90;;;;;;4965664;28;20051;-64